Time;durP1;ratioP1;P1;durP2;ratioP2;P2;SDS_P1;SDS_P2;PMS_P1;PMS_P2;Temp;Humidity;BMP_temperature;BMP_pressure;BME280_temperature;BME280_humidity;BME280_pressure;Samples;Min_cycle;Max_cycle;Signal;HPM_P1;HPM_P2
2022/08/05 00:00:08;;;;;;;;;;;;;;;28.69;47.61;99612.81;2091534;28;19916;-53
2022/08/05 00:01:12;;;;;;;;;;;;;;;28.67;47.52;99615.84;2094867;28;19965;-51
2022/08/05 00:02:13;;;;;;;;;;;;;;;28.67;47.75;99610.28;2092246;28;19981;-53
2022/08/05 00:03:14;;;;;;;;;;;;;;;28.67;47.44;99618.63;2103263;28;20010;-53
2022/08/05 00:04:15;;;;;;;;;;;;;;;28.67;47.58;99615.84;2093865;28;19916;-53
2022/08/05 00:05:15;;;;;;;;;;;;;;;28.67;47.47;99609.44;2092653;28;19927;-53
2022/08/05 00:06:16;;;;;;;;;;;;;;;28.68;47.53;99605.59;2092735;28;20238;-53
2022/08/05 00:07:16;;;;;;;;;;;;;;;28.68;47.47;99588.94;2091587;28;20224;-50
2022/08/05 00:08:16;;;;;;;;;;;;;;;28.66;47.56;99591.94;2093425;28;19920;-53
2022/08/05 00:09:17;;;;;;;;;;;;;;;28.64;47.62;99589.41;2094374;28;19916;-53
2022/08/05 00:10:17;;;;;;;;;;;;;;;28.66;47.42;99597.47;2091636;28;19916;-52
2022/08/05 00:11:17;;;;;;;;;;;;;;;28.66;47.33;99582.78;2091230;28;19922;-51
2022/08/05 00:12:18;;;;;;;;;;;;;;;28.67;47.31;99588.09;2092353;28;19908;-53
2022/08/05 00:13:18;;;;;;;;;;;;;;;28.67;47.37;99584.50;2093973;28;19916;-52
2022/08/05 00:14:18;;;;;;;;;;;;;;;28.68;47.33;99588.94;2091530;28;19916;-53
2022/08/05 00:15:19;;;;;;;;;;;;;;;28.67;47.21;99581.72;2093643;28;20003;-50
2022/08/05 00:16:19;;;;;;;;;;;;;;;28.68;47.09;99583.41;2091352;28;20571;-53
2022/08/05 00:17:19;;;;;;;;;;;;;;;28.68;47.22;99573.16;2092504;28;19920;-53
2022/08/05 00:18:20;;;;;;;;;;;;;;;28.67;47.19;99573.41;2085544;28;19928;-52
2022/08/05 00:19:23;;;;;;;;;;;;;;;28.69;46.93;99574.00;2090365;28;20335;-53
2022/08/05 00:20:23;;;;;;;;;;;;;;;28.69;47.08;99574.00;2092993;28;19916;-53
2022/08/05 00:21:24;;;;;;;;;;;;;;;28.68;46.80;99572.31;2092055;28;19916;-50
2022/08/05 00:22:24;;;;;;;;;;;;;;;28.68;46.80;99573.16;2085698;28;20338;-52
2022/08/05 00:23:24;;;;;;;;;;;;;;;28.69;46.94;99585.09;2093804;28;19942;-53
2022/08/05 00:24:25;;;;;;;;;;;;;;;28.69;46.90;99585.09;2092894;28;20636;-52
2022/08/05 00:25:25;;;;;;;;;;;;;;;28.69;46.80;99579.53;2092966;28;20401;-52
2022/08/05 00:26:25;;;;;;;;;;;;;;;28.69;46.90;99585.09;2092221;28;19969;-51
2022/08/05 00:27:27;;;;;;;;;;;;;;;28.69;46.88;99582.31;2090730;28;20280;-49
2022/08/05 00:28:27;;;;;;;;;;;;;;;28.69;46.77;99574.00;2091777;28;19908;-51
2022/08/05 00:29:27;;;;;;;;;;;;;;;28.68;46.80;99572.31;2087661;28;19956;-52
2022/08/05 00:30:28;;;;;;;;;;;;;;;28.70;46.87;99575.72;2093576;28;19916;-53
2022/08/05 00:31:28;;;;;;;;;;;;;;;28.69;46.90;99568.44;2091859;28;19943;-53
2022/08/05 00:32:28;;;;;;;;;;;;;;;28.70;46.83;99572.94;2091970;28;20043;-53
2022/08/05 00:33:29;;;;;;;;;;;;;;;28.70;46.92;99575.72;2093532;28;20311;-50
2022/08/05 00:34:29;;;;;;;;;;;;;;;28.70;46.79;99572.94;2093127;28;20380;-51
2022/08/05 00:35:30;;;;;;;;;;;;;;;28.69;46.94;99574.00;2090800;28;19934;-53
2022/08/05 00:36:30;;;;;;;;;;;;;;;28.69;46.81;99568.44;2093365;28;20605;-50
2022/08/05 00:37:30;;;;;;;;;;;;;;;28.69;46.90;99568.44;2089390;28;20281;-51
2022/08/05 00:38:31;;;;;;;;;;;;;;;28.70;46.75;99567.41;2092857;28;20032;-52
2022/08/05 00:39:31;;;;;;;;;;;;;;;28.68;46.96;99567.59;2091385;28;19908;-53
2022/08/05 00:40:32;;;;;;;;;;;;;;;28.68;46.82;99561.22;2087939;28;19922;-52
2022/08/05 00:41:33;;;;;;;;;;;;;;;28.68;47.02;99561.22;2093784;28;20279;-51
2022/08/05 00:42:35;;;;;;;;;;;;;;;28.67;46.89;99559.53;2092053;28;20485;-51
2022/08/05 00:43:36;;;;;;;;;;;;;;;28.67;46.95;99560.38;2090183;28;19935;-49
2022/08/05 00:44:36;;;;;;;;;;;;;;;28.68;47.03;99559.28;2093322;28;19927;-51
2022/08/05 00:45:36;;;;;;;;;;;;;;;28.69;46.90;99562.91;2095191;28;20651;-51
2022/08/05 00:46:37;;;;;;;;;;;;;;;28.67;46.84;99559.53;2092724;28;19935;-50
2022/08/05 00:47:37;;;;;;;;;;;;;;;28.68;46.81;99561.22;2092216;28;19916;-52
2022/08/05 00:48:38;;;;;;;;;;;;;;;28.67;46.96;99554.84;2094555;28;19914;-52
2022/08/05 00:49:38;;;;;;;;;;;;;;;28.67;47.09;99554.00;2093245;28;19916;-52
2022/08/05 00:50:40;;;;;;;;;;;;;;;28.66;47.11;99552.28;2093388;28;19916;-53
2022/08/05 00:51:41;;;;;;;;;;;;;;;28.67;46.95;99549.28;2087815;28;19916;-53
2022/08/05 00:52:41;;;;;;;;;;;;;;;28.67;47.24;99548.44;2093604;28;19949;-53
2022/08/05 00:53:42;;;;;;;;;;;;;;;28.67;47.02;99542.91;2095843;28;19908;-52
2022/08/05 00:54:42;;;;;;;;;;;;;;;28.66;47.09;99543.94;2088203;28;19913;-53
2022/08/05 00:55:43;;;;;;;;;;;;;;;28.67;47.17;99540.13;2094614;28;19956;-53
2022/08/05 00:56:44;;;;;;;;;;;;;;;28.67;47.12;99548.44;2091645;28;19970;-52
2022/08/05 00:57:44;;;;;;;;;;;;;;;28.67;46.98;99540.97;2090751;28;19919;-51
2022/08/05 00:58:44;;;;;;;;;;;;;;;28.67;46.92;99540.13;2091246;28;19924;-52
2022/08/05 00:59:45;;;;;;;;;;;;;;;28.66;46.96;99536.47;2088140;28;20160;-51
2022/08/05 01:00:46;;;;;;;;;;;;;;;28.67;46.98;99529.03;2091320;28;19920;-52
2022/08/05 01:01:46;;;;;;;;;;;;;;;28.66;47.12;99528.16;2092718;28;19998;-51
2022/08/05 01:02:46;;;;;;;;;;;;;;;28.66;47.13;99533.72;2096671;28;19952;-53
2022/08/05 01:03:47;;;;;;;;;;;;;;;28.67;47.04;99534.56;2098255;28;19967;-54
2022/08/05 01:04:47;;;;;;;;;;;;;;;28.66;47.07;99541.19;2100478;28;20891;-53
2022/08/05 01:05:47;;;;;;;;;;;;;;;28.66;46.97;99530.09;2090198;28;20050;-49
2022/08/05 01:06:48;;;;;;;;;;;;;;;28.67;47.04;99531.81;2095363;28;19916;-50
2022/08/05 01:07:49;;;;;;;;;;;;;;;28.67;47.04;99531.81;2086969;28;20533;-53
2022/08/05 01:08:49;;;;;;;;;;;;;;;28.66;47.19;99533.72;2089019;28;19922;-52
2022/08/05 01:09:49;;;;;;;;;;;;;;;28.64;47.49;99520.09;2088907;28;19920;-53
2022/08/05 01:10:58;;;;;;;;;;;;;;;28.64;47.33;99525.63;2092342;28;19923;-52
2022/08/05 01:12:02;;;;;;;;;;;;;;;28.64;47.28;99522.84;2088776;28;20577;-53
2022/08/05 01:13:35;;;;;;;;;;;;;;;28.65;47.21;99523.69;2094416;28;19912;-50
2022/08/05 01:14:35;;;;;;;;;;;;;;;28.64;47.30;99516.47;2066933;28;20011;-51
2022/08/05 01:15:38;;;;;;;;;;;;;;;28.64;47.42;99520.09;2080817;28;19904;-51
2022/08/05 01:16:45;;;;;;;;;;;;;;;28.64;47.27;99517.31;2086888;28;19951;-53
2022/08/05 01:17:48;;;;;;;;;;;;;;;28.63;47.35;99515.59;2087290;28;20351;-52
2022/08/05 01:18:50;;;;;;;;;;;;;;;28.63;47.42;99515.59;2093298;28;20341;-49
2022/08/05 01:19:53;;;;;;;;;;;;;;;28.62;47.34;99513.91;2091844;28;20349;-51
2022/08/05 01:20:59;;;;;;;;;;;;;;;28.62;47.42;99519.47;2089135;28;20497;-53
2022/08/05 01:22:08;;;;;;;;;;;;;;;28.63;47.21;99515.59;2094481;28;19927;-53
2022/08/05 01:23:11;;;;;;;;;;;;;;;28.61;47.28;99523.31;2090545;28;20020;-52
2022/08/05 01:24:30;;;;;;;;;;;;;;;28.63;47.39;99518.38;2092644;28;19904;-53
2022/08/05 01:25:34;;;;;;;;;;;;;;;28.63;47.36;99515.59;2089613;28;19920;-53
2022/08/05 01:26:37;;;;;;;;;;;;;;;28.63;47.34;99515.59;2084105;28;19924;-53
2022/08/05 01:27:38;;;;;;;;;;;;;;;28.62;47.38;99519.47;2090908;28;20143;-52
2022/08/05 01:28:45;;;;;;;;;;;;;;;28.63;47.39;99521.16;2091204;28;20304;-52
2022/08/05 01:29:47;;;;;;;;;;;;;;;28.63;47.41;99521.16;2087466;28;19921;-50
2022/08/05 01:31:09;;;;;;;;;;;;;;;28.63;47.36;99521.16;2090053;28;19920;-53
2022/08/05 01:32:10;;;;;;;;;;;;;;;28.63;47.34;99523.91;2092651;28;19920;-53
2022/08/05 01:33:11;;;;;;;;;;;;;;;28.63;47.15;99517.53;2093625;28;20243;-51
2022/08/05 01:34:18;;;;;;;;;;;;;;;28.63;47.34;99510.06;2092332;28;20011;-51
2022/08/05 01:35:24;;;;;;;;;;;;;;;28.63;47.41;99515.59;2090853;28;19908;-54
2022/08/05 01:36:28;;;;;;;;;;;;;;;28.63;47.46;99521.16;2092434;28;20297;-52
2022/08/05 01:37:40;;;;;;;;;;;;;;;28.63;47.42;99521.16;2092940;28;19916;-52
2022/08/05 01:38:41;;;;;;;;;;;;;;;28.63;47.25;99521.16;2091606;28;20769;-53
2022/08/05 01:39:45;;;;;;;;;;;;;;;28.63;47.57;99515.59;2087314;28;19913;-53
2022/08/05 01:40:46;;;;;;;;;;;;;;;28.62;47.40;99519.47;2091561;28;20337;-52
2022/08/05 01:41:47;;;;;;;;;;;;;;;28.62;47.49;99519.47;2087327;28;19951;-53
2022/08/05 01:42:49;;;;;;;;;;;;;;;28.62;47.41;99519.47;2088720;28;20352;-53
2022/08/05 01:43:51;;;;;;;;;;;;;;;28.62;47.66;99522.22;2091171;28;20306;-50
2022/08/05 01:44:54;;;;;;;;;;;;;;;28.62;47.47;99525.00;2087833;28;19916;-53
2022/08/05 01:45:56;;;;;;;;;;;;;;;28.62;47.71;99530.56;2088829;28;20442;-51
2022/08/05 01:46:57;;;;;;;;;;;;;;;28.61;47.56;99526.09;2088621;28;19997;-52
2022/08/05 01:47:59;;;;;;;;;;;;;;;28.61;47.56;99528.88;2094652;28;20003;-53
2022/08/05 01:48:59;;;;;;;;;;;;;;;28.61;47.70;99528.88;2097545;28;19939;-50
2022/08/05 01:50:01;;;;;;;;;;;;;;;28.61;47.56;99530.75;2104887;28;19916;-51
2022/08/05 01:51:02;;;;;;;;;;;;;;;28.60;47.75;99529.91;2093353;28;19916;-51
2022/08/05 01:52:03;;;;;;;;;;;;;;;28.60;47.77;99529.91;2085624;28;19927;-50
2022/08/05 01:53:05;;;;;;;;;;;;;;;28.59;47.84;99531.00;2091551;28;20024;-53
2022/08/05 01:54:07;;;;;;;;;;;;;;;28.59;47.73;99530.13;2092516;28;19973;-50
2022/08/05 01:55:08;;;;;;;;;;;;;;;28.60;47.53;99529.91;2088643;28;19923;-53
2022/08/05 01:56:10;;;;;;;;;;;;;;;28.59;47.80;99528.25;2094619;28;20036;-53
2022/08/05 01:57:11;;;;;;;;;;;;;;;28.59;47.70;99533.78;2092489;28;19916;-52
2022/08/05 01:58:12;;;;;;;;;;;;;;;28.60;47.67;99532.69;2091523;28;20463;-51
2022/08/05 01:59:16;;;;;;;;;;;;;;;28.60;47.66;99531.84;2089559;28;19912;-52
2022/08/05 02:00:17;;;;;;;;;;;;;;;28.60;47.68;99537.41;2088691;28;20023;-53
2022/08/05 02:01:19;;;;;;;;;;;;;;;28.60;47.72;99538.25;2091634;28;19916;-53
2022/08/05 02:02:20;;;;;;;;;;;;;;;28.60;47.58;99532.69;2093041;28;20410;-52
2022/08/05 02:03:23;;;;;;;;;;;;;;;28.60;47.55;99543.78;2094073;28;20287;-53
2022/08/05 02:04:25;;;;;;;;;;;;;;;28.59;47.60;99542.09;2087950;28;19916;-50
2022/08/05 02:05:30;;;;;;;;;;;;;;;28.60;47.77;99545.72;2087804;28;19922;-51
2022/08/05 02:06:31;;;;;;;;;;;;;;;28.59;47.87;99539.31;2094967;28;20179;-52
2022/08/05 02:07:33;;;;;;;;;;;;;;;28.59;47.72;99541.22;2092532;28;19987;-53
2022/08/05 02:08:33;;;;;;;;;;;;;;;28.61;47.55;99556.59;2092275;28;20042;-53
2022/08/05 02:09:33;;;;;;;;;;;;;;;28.58;47.72;99551.47;2094803;28;20018;-52
2022/08/05 02:10:41;;;;;;;;;;;;;;;28.59;48.03;99555.97;2087251;28;20027;-52
2022/08/05 02:11:46;;;;;;;;;;;;;;;28.58;48.01;99562.56;2085259;28;20302;-52
2022/08/05 02:13:07;;;;;;;;;;;;;;;28.58;48.02;99562.56;2093973;28;19959;-53
2022/08/05 02:14:11;;;;;;;;;;;;;;;28.58;48.15;99562.56;2093236;28;20041;-52
2022/08/05 02:15:14;;;;;;;;;;;;;;;28.58;48.30;99567.28;2093765;28;20266;-50
2022/08/05 02:16:19;;;;;;;;;;;;;;;28.57;48.21;99571.97;2094760;28;19924;-53
2022/08/05 02:17:28;;;;;;;;;;;;;;;28.57;48.17;99568.34;2093393;28;19977;-50
2022/08/05 02:18:40;;;;;;;;;;;;;;;28.57;48.09;99566.44;2090903;28;19916;-49
2022/08/05 02:19:43;;;;;;;;;;;;;;;28.57;48.41;99571.97;2087943;28;19924;-53
2022/08/05 02:20:55;;;;;;;;;;;;;;;28.55;48.26;99571.34;2093795;28;19916;-53
2022/08/05 02:22:12;;;;;;;;;;;;;;;28.56;48.32;99569.41;2089021;28;19915;-52
2022/08/05 02:23:14;;;;;;;;;;;;;;;28.54;48.34;99566.88;2090659;28;20548;-50
2022/08/05 02:24:17;;;;;;;;;;;;;;;28.54;48.44;99577.97;2093575;28;19908;-51
2022/08/05 02:25:21;;;;;;;;;;;;;;;28.55;48.34;99578.81;2089906;28;19916;-53
2022/08/05 02:26:24;;;;;;;;;;;;;;;28.53;48.34;99576.25;2092157;28;19920;-53
2022/08/05 02:27:24;;;;;;;;;;;;;;;28.55;48.48;99578.81;2086475;28;20551;-53
2022/08/05 02:28:28;;;;;;;;;;;;;;;28.54;48.31;99577.97;2091268;28;19915;-51
2022/08/05 02:29:30;;;;;;;;;;;;;;;28.54;48.37;99577.97;2092917;28;20385;-53
2022/08/05 02:30:49;;;;;;;;;;;;;;;28.53;48.13;99580.97;2089958;28;19944;-53
2022/08/05 02:31:52;;;;;;;;;;;;;;;28.52;48.28;99580.13;2089151;28;19967;-53
2022/08/05 02:32:54;;;;;;;;;;;;;;;28.53;48.36;99579.03;2095679;28;19915;-53
2022/08/05 02:34:00;;;;;;;;;;;;;;;28.53;48.31;99580.97;2085309;28;20080;-53
2022/08/05 02:35:02;;;;;;;;;;;;;;;28.52;48.29;99582.91;2088356;28;19937;-53
2022/08/05 02:36:04;;;;;;;;;;;;;;;28.53;48.20;99587.34;2092808;28;19916;-52
2022/08/05 02:37:07;;;;;;;;;;;;;;;28.53;48.11;99587.34;2094865;28;19923;-52
2022/08/05 02:38:07;;;;;;;;;;;;;;;28.52;48.18;99582.91;2090037;28;20093;-53
2022/08/05 02:39:11;;;;;;;;;;;;;;;28.53;48.22;99587.34;2093941;28;20044;-53
2022/08/05 02:40:13;;;;;;;;;;;;;;;28.53;48.10;99592.91;2092548;28;19977;-51
2022/08/05 02:41:14;;;;;;;;;;;;;;;28.53;48.06;99587.34;2091095;28;19919;-53
2022/08/05 02:42:15;;;;;;;;;;;;;;;28.54;48.00;99593.75;2085604;28;19916;-54
2022/08/05 02:43:17;;;;;;;;;;;;;;;28.54;48.09;99591.84;2086280;28;20457;-50
2022/08/05 02:44:18;;;;;;;;;;;;;;;28.52;48.04;99591.22;2085105;28;19999;-53
2022/08/05 02:45:19;;;;;;;;;;;;;;;28.52;47.99;99587.59;2093187;28;19922;-51
2022/08/05 02:46:20;;;;;;;;;;;;;;;28.52;47.86;99585.66;2089840;28;19917;-52
2022/08/05 02:47:21;;;;;;;;;;;;;;;28.52;48.00;99588.44;2085262;28;19925;-52
2022/08/05 02:48:22;;;;;;;;;;;;;;;28.52;48.03;99591.22;2089382;28;19970;-53
2022/08/05 02:49:24;;;;;;;;;;;;;;;28.52;48.08;99595.91;2091130;28;19916;-51
2022/08/05 02:50:25;;;;;;;;;;;;;;;28.52;48.27;99590.38;2092995;28;20344;-50
2022/08/05 02:51:26;;;;;;;;;;;;;;;28.50;48.26;99598.06;2090806;28;20020;-53
2022/08/05 02:52:28;;;;;;;;;;;;;;;28.50;48.26;99598.91;2092127;28;19924;-52
2022/08/05 02:53:29;;;;;;;;;;;;;;;28.49;48.37;99601.88;2090307;28;19916;-52
2022/08/05 02:54:30;;;;;;;;;;;;;;;28.47;48.57;99596.59;2093349;28;19982;-51
2022/08/05 02:55:31;;;;;;;;;;;;;;;28.47;48.52;99609.56;2093283;28;19954;-53
2022/08/05 02:56:33;;;;;;;;;;;;;;;28.45;48.34;99607.03;2085722;28;19943;-53
2022/08/05 02:57:37;;;;;;;;;;;;;;;28.44;48.65;99605.28;2093565;28;19912;-51
2022/08/05 02:58:40;;;;;;;;;;;;;;;28.45;48.54;99597.84;2087142;28;19920;-52
2022/08/05 02:59:42;;;;;;;;;;;;;;;28.45;48.65;99612.59;2086075;28;20362;-50
2022/08/05 03:00:43;;;;;;;;;;;;;;;28.45;48.53;99607.03;2091950;28;20327;-49
2022/08/05 03:01:44;;;;;;;;;;;;;;;28.42;48.50;99601.91;2089356;28;19920;-53
2022/08/05 03:02:46;;;;;;;;;;;;;;;28.43;48.53;99614.69;2090698;28;20014;-54
2022/08/05 03:03:49;;;;;;;;;;;;;;;28.42;48.41;99607.47;2091886;28;20022;-53
2022/08/05 03:04:52;;;;;;;;;;;;;;;28.41;48.57;99611.28;2087510;28;19926;-53
2022/08/05 03:05:53;;;;;;;;;;;;;;;28.41;48.44;99611.28;2089847;28;19924;-52
2022/08/05 03:06:54;;;;;;;;;;;;;;;28.40;48.29;99610.44;2091488;28;20258;-51
2022/08/05 03:07:54;;;;;;;;;;;;;;;28.39;48.37;99611.53;2089569;28;19915;-51
2022/08/05 03:08:55;;;;;;;;;;;;;;;28.39;48.25;99611.53;2092897;28;20338;-50
2022/08/05 03:09:56;;;;;;;;;;;;;;;28.40;48.29;99612.38;2090161;28;20314;-53
2022/08/05 03:10:56;;;;;;;;;;;;;;;28.40;48.27;99612.38;2096522;28;19915;-50
2022/08/05 03:11:56;;;;;;;;;;;;;;;28.41;48.26;99611.28;2091940;28;19919;-52
2022/08/05 03:12:57;;;;;;;;;;;;;;;28.41;48.40;99611.28;2087784;28;20109;-52
2022/08/05 03:13:57;;;;;;;;;;;;;;;28.39;48.21;99608.75;2091035;28;19966;-53
2022/08/05 03:14:58;;;;;;;;;;;;;;;28.40;48.27;99609.59;2088466;28;20010;-53
2022/08/05 03:15:59;;;;;;;;;;;;;;;28.41;48.20;99605.75;2095619;28;19920;-54
2022/08/05 03:16:59;;;;;;;;;;;;;;;28.40;48.13;99610.44;2091124;28;19924;-53
2022/08/05 03:17:59;;;;;;;;;;;;;;;28.40;48.14;99615.16;2088942;28;19919;-53
2022/08/05 03:19:00;;;;;;;;;;;;;;;28.40;48.15;99620.69;2094736;28;19923;-52
2022/08/05 03:20:00;;;;;;;;;;;;;;;28.40;47.97;99620.69;2092286;28;19923;-52
2022/08/05 03:21:01;;;;;;;;;;;;;;;28.40;48.08;99612.38;2089954;28;20517;-52
2022/08/05 03:22:01;;;;;;;;;;;;;;;28.40;48.14;99620.69;2094167;28;20125;-52
2022/08/05 03:23:04;;;;;;;;;;;;;;;28.39;48.02;99618.97;2092074;28;19928;-52
2022/08/05 03:24:05;;;;;;;;;;;;;;;28.40;47.99;99627.06;2092814;28;20378;-53
2022/08/05 03:25:06;;;;;;;;;;;;;;;28.40;48.06;99615.16;2091053;28;20415;-53
2022/08/05 03:26:07;;;;;;;;;;;;;;;28.39;47.94;99618.97;2092926;28;19923;-52
2022/08/05 03:27:07;;;;;;;;;;;;;;;28.38;47.87;99618.13;2092731;28;20452;-50
2022/08/05 03:28:08;;;;;;;;;;;;;;;28.39;48.00;99619.84;2091759;28;20383;-53
2022/08/05 03:29:08;;;;;;;;;;;;;;;28.39;47.76;99618.97;2092892;28;19916;-52
2022/08/05 03:30:09;;;;;;;;;;;;;;;28.38;47.79;99622.81;2091927;28;19923;-52
2022/08/05 03:31:09;;;;;;;;;;;;;;;28.38;47.77;99625.59;2092481;28;19975;-53
2022/08/05 03:32:10;;;;;;;;;;;;;;;28.38;47.64;99622.81;2092183;28;20362;-53
2022/08/05 03:33:10;;;;;;;;;;;;;;;28.38;47.68;99617.28;2088237;28;20006;-53
2022/08/05 03:34:11;;;;;;;;;;;;;;;28.38;47.53;99623.66;2093881;28;20264;-51
2022/08/05 03:35:12;;;;;;;;;;;;;;;28.39;47.45;99621.75;2088535;28;19921;-49
2022/08/05 03:36:12;;;;;;;;;;;;;;;28.39;47.57;99619.84;2085949;28;20369;-51
2022/08/05 03:37:12;;;;;;;;;;;;;;;28.39;47.49;99618.97;2093268;28;19916;-51
2022/08/05 03:38:13;;;;;;;;;;;;;;;28.37;47.50;99621.09;2090836;28;19948;-53
2022/08/05 03:39:13;;;;;;;;;;;;;;;28.38;47.31;99622.81;2086109;28;19928;-52
2022/08/05 03:40:14;;;;;;;;;;;;;;;28.37;47.31;99616.44;2090161;28;19957;-53
2022/08/05 03:41:15;;;;;;;;;;;;;;;28.37;47.43;99621.09;2086443;28;20047;-52
2022/08/05 03:42:15;;;;;;;;;;;;;;;28.36;47.21;99619.44;2092464;28;19924;-52
2022/08/05 03:43:16;;;;;;;;;;;;;;;28.36;47.25;99622.19;2088716;28;19923;-52
2022/08/05 03:44:16;;;;;;;;;;;;;;;28.36;47.14;99619.44;2084746;28;20208;-53
2022/08/05 03:45:17;;;;;;;;;;;;;;;28.34;47.19;99621.56;2086713;28;20272;-53
2022/08/05 03:46:17;;;;;;;;;;;;;;;28.34;47.23;99627.94;2086599;28;19991;-51
2022/08/05 03:47:17;;;;;;;;;;;;;;;28.34;47.13;99619.63;2093894;28;19946;-53
2022/08/05 03:48:18;;;;;;;;;;;;;;;28.34;46.89;99624.34;2090305;28;19920;-50
2022/08/05 03:49:19;;;;;;;;;;;;;;;28.35;47.15;99617.75;2092876;28;19916;-53
2022/08/05 03:50:19;;;;;;;;;;;;;;;28.34;47.01;99627.94;2089808;28;19915;-53
2022/08/05 03:51:40;;;;;;;;;;;;;;;28.32;47.05;99627.34;2091036;28;20419;-53
2022/08/05 03:52:47;;;;;;;;;;;;;;;28.33;46.95;99628.19;2092604;28;20016;-53
2022/08/05 03:53:51;;;;;;;;;;;;;;;28.33;47.02;99630.97;2091955;28;19993;-51
2022/08/05 03:54:55;;;;;;;;;;;;;;;28.32;46.95;99620.94;2090212;28;19926;-53
2022/08/05 03:56:06;;;;;;;;;;;;;;;28.33;46.88;99630.97;2093211;28;19994;-52
2022/08/05 03:57:08;;;;;;;;;;;;;;;28.34;46.85;99632.66;2091664;28;19908;-53
2022/08/05 03:58:10;;;;;;;;;;;;;;;28.34;46.75;99633.50;2090358;28;19916;-53
2022/08/05 03:59:16;;;;;;;;;;;;;;;28.34;46.81;99638.19;2092738;28;20512;-53
2022/08/05 04:00:16;;;;;;;;;;;;;;;28.35;46.82;99634.38;2090806;28;19916;-53
2022/08/05 04:01:18;;;;;;;;;;;;;;;28.34;46.86;99639.03;2083826;28;20344;-53
2022/08/05 04:02:19;;;;;;;;;;;;;;;28.35;46.75;99639.91;2092207;28;20864;-53
2022/08/05 04:03:20;;;;;;;;;;;;;;;28.33;46.74;99631.81;2089858;28;19923;-52
2022/08/05 04:04:21;;;;;;;;;;;;;;;28.35;46.68;99637.97;2091844;28;20291;-50
2022/08/05 04:05:22;;;;;;;;;;;;;;;28.34;46.84;99638.19;2092576;28;19969;-52
2022/08/05 04:06:22;;;;;;;;;;;;;;;28.34;46.75;99638.19;2090279;28;19924;-53
2022/08/05 04:07:23;;;;;;;;;;;;;;;28.34;46.67;99643.72;2092490;28;19934;-53
2022/08/05 04:08:24;;;;;;;;;;;;;;;28.33;46.73;99642.88;2092280;28;20401;-52
2022/08/05 04:09:25;;;;;;;;;;;;;;;28.34;46.63;99644.59;2091918;28;20158;-53
2022/08/05 04:10:26;;;;;;;;;;;;;;;28.33;46.74;99644.81;2092997;28;19908;-52
2022/08/05 04:11:27;;;;;;;;;;;;;;;28.33;46.55;99642.06;2091201;28;20320;-50
2022/08/05 04:12:28;;;;;;;;;;;;;;;28.33;46.62;99642.06;2091755;28;19916;-49
2022/08/05 04:13:29;;;;;;;;;;;;;;;28.32;46.48;99651.41;2091196;28;19963;-53
2022/08/05 04:14:29;;;;;;;;;;;;;;;28.33;46.64;99653.13;2089397;28;19920;-53
2022/08/05 04:15:30;;;;;;;;;;;;;;;28.33;46.67;99653.13;2093311;28;20373;-50
2022/08/05 04:16:30;;;;;;;;;;;;;;;28.33;46.45;99653.13;2090822;28;19916;-50
2022/08/05 04:17:32;;;;;;;;;;;;;;;28.33;46.63;99658.69;2092938;28;19916;-52
2022/08/05 04:18:33;;;;;;;;;;;;;;;28.33;46.45;99655.91;2092391;28;19916;-52
2022/08/05 04:19:40;;;;;;;;;;;;;;;28.33;46.60;99658.69;2091602;28;19916;-50
2022/08/05 04:20:41;;;;;;;;;;;;;;;28.33;46.54;99662.28;2092373;28;19980;-52
2022/08/05 04:21:41;;;;;;;;;;;;;;;28.32;46.69;99671.69;2090628;28;19912;-53
2022/08/05 04:22:42;;;;;;;;;;;;;;;28.32;46.47;99668.06;2094168;28;19963;-52
2022/08/05 04:23:42;;;;;;;;;;;;;;;28.32;46.68;99663.38;2091591;28;19915;-50
2022/08/05 04:24:44;;;;;;;;;;;;;;;28.32;46.48;99665.28;2093347;28;20007;-52
2022/08/05 04:25:44;;;;;;;;;;;;;;;28.33;46.52;99675.31;2090838;28;20235;-53
2022/08/05 04:26:44;;;;;;;;;;;;;;;28.31;46.68;99677.44;2092513;28;19908;-50
2022/08/05 04:27:44;;;;;;;;;;;;;;;28.30;46.64;99678.53;2089966;28;19927;-51
2022/08/05 04:28:45;;;;;;;;;;;;;;;28.31;46.57;99680.22;2093074;28;20134;-49
2022/08/05 04:29:45;;;;;;;;;;;;;;;28.31;46.55;99677.44;2091140;28;19916;-52
2022/08/05 04:30:46;;;;;;;;;;;;;;;28.30;46.58;99664.69;2089812;28;19998;-53
2022/08/05 04:31:46;;;;;;;;;;;;;;;28.29;46.56;99680.44;2090486;28;20151;-53
2022/08/05 04:32:46;;;;;;;;;;;;;;;28.30;46.31;99686.84;2093038;28;20411;-53
2022/08/05 04:33:47;;;;;;;;;;;;;;;28.31;46.50;99689.38;2088378;28;20035;-52
2022/08/05 04:34:47;;;;;;;;;;;;;;;28.30;46.52;99689.63;2090176;28;19916;-52
2022/08/05 04:35:47;;;;;;;;;;;;;;;28.29;46.60;99690.66;2093008;28;19912;-53
2022/08/05 04:36:48;;;;;;;;;;;;;;;28.29;46.45;99690.66;2090088;28;19916;-53
2022/08/05 04:37:48;;;;;;;;;;;;;;;28.29;46.52;99696.22;2091667;28;19955;-52
2022/08/05 04:38:48;;;;;;;;;;;;;;;28.30;46.56;99686.84;2091501;28;19923;-51
2022/08/05 04:39:49;;;;;;;;;;;;;;;28.29;46.59;99691.50;2091430;28;20976;-50
2022/08/05 04:40:49;;;;;;;;;;;;;;;28.28;46.33;99695.38;2087435;28;20094;-52
2022/08/05 04:41:50;;;;;;;;;;;;;;;28.29;46.46;99698.97;2088741;28;19950;-53
2022/08/05 04:42:50;;;;;;;;;;;;;;;28.30;46.55;99697.94;2090110;28;19920;-53
2022/08/05 04:43:51;;;;;;;;;;;;;;;28.29;46.22;99704.53;2091838;28;19916;-52
2022/08/05 04:44:51;;;;;;;;;;;;;;;28.29;46.43;99697.06;2091357;28;19934;-50
2022/08/05 04:45:51;;;;;;;;;;;;;;;28.30;46.30;99697.94;2093371;28;19923;-51
2022/08/05 04:46:51;;;;;;;;;;;;;;;28.30;46.28;99703.47;2090724;28;20201;-50
2022/08/05 04:47:52;;;;;;;;;;;;;;;28.30;46.28;99704.31;2092651;28;20436;-52
2022/08/05 04:48:52;;;;;;;;;;;;;;;28.30;46.29;99703.47;2091410;28;19977;-53
2022/08/05 04:49:52;;;;;;;;;;;;;;;28.29;46.21;99702.59;2089259;28;19916;-50
2022/08/05 04:50:52;;;;;;;;;;;;;;;28.29;46.27;99707.31;2091481;28;19916;-53
2022/08/05 04:51:53;;;;;;;;;;;;;;;28.28;46.13;99711.16;2090628;28;20002;-53
2022/08/05 04:52:53;;;;;;;;;;;;;;;28.29;46.07;99712.84;2092318;28;20383;-50
2022/08/05 04:53:53;;;;;;;;;;;;;;;28.28;46.17;99711.16;2089888;28;19956;-53
2022/08/05 04:54:54;;;;;;;;;;;;;;;28.27;46.01;99714.97;2088336;28;20315;-50
2022/08/05 04:55:55;;;;;;;;;;;;;;;28.28;46.02;99708.38;2090218;28;19935;-53
2022/08/05 04:56:55;;;;;;;;;;;;;;;28.27;46.03;99717.75;2087335;28;20062;-50
2022/08/05 04:57:55;;;;;;;;;;;;;;;28.26;45.95;99713.28;2090365;28;20391;-52
2022/08/05 04:58:55;;;;;;;;;;;;;;;28.25;45.86;99711.56;2090514;28;20237;-54
2022/08/05 04:59:56;;;;;;;;;;;;;;;28.25;45.81;99718.00;2087987;28;20148;-53
2022/08/05 05:00:56;;;;;;;;;;;;;;;28.24;45.72;99720.97;2091649;28;19918;-49
2022/08/05 05:01:57;;;;;;;;;;;;;;;28.23;45.71;99713.75;2086126;28;19995;-49
2022/08/05 05:02:57;;;;;;;;;;;;;;;28.21;45.54;99717.56;2090726;28;19922;-53
2022/08/05 05:03:58;;;;;;;;;;;;;;;28.21;45.53;99717.56;2092130;28;19950;-52
2022/08/05 05:04:58;;;;;;;;;;;;;;;28.21;45.47;99725.88;2086328;28;19970;-50
2022/08/05 05:05:58;;;;;;;;;;;;;;;28.19;45.25;99719.69;2090262;28;20371;-52
2022/08/05 05:06:58;;;;;;;;;;;;;;;28.19;45.36;99718.84;2086885;28;19917;-52
2022/08/05 05:08:02;;;;;;;;;;;;;;;28.19;45.07;99735.47;2090793;28;19916;-50
2022/08/05 05:09:03;;;;;;;;;;;;;;;28.17;44.96;99721.84;2089295;28;19919;-53
2022/08/05 05:10:05;;;;;;;;;;;;;;;28.17;45.06;99732.06;2095758;28;19916;-52
2022/08/05 05:11:06;;;;;;;;;;;;;;;28.17;45.19;99726.53;2090495;28;19920;-50
2022/08/05 05:12:06;;;;;;;;;;;;;;;28.17;45.09;99732.94;2095158;28;19916;-49
2022/08/05 05:13:08;;;;;;;;;;;;;;;28.17;45.07;99720.97;2090387;28;19908;-52
2022/08/05 05:14:08;;;;;;;;;;;;;;;28.17;45.09;99727.41;2091036;28;20332;-50
2022/08/05 05:15:08;;;;;;;;;;;;;;;28.17;44.95;99726.53;2088712;28;19919;-52
2022/08/05 05:16:09;;;;;;;;;;;;;;;28.18;45.00;99731.84;2094005;28;19920;-53
2022/08/05 05:17:10;;;;;;;;;;;;;;;28.17;45.08;99729.28;2089237;28;19924;-51
2022/08/05 05:18:14;;;;;;;;;;;;;;;28.17;45.03;99738.47;2092055;28;19931;-53
2022/08/05 05:19:14;;;;;;;;;;;;;;;28.18;45.15;99734.63;2093578;28;19916;-53
2022/08/05 05:20:14;;;;;;;;;;;;;;;28.19;44.85;99739.09;2093235;28;19912;-51
2022/08/05 05:21:15;;;;;;;;;;;;;;;28.19;45.06;99741.03;2094212;28;20205;-53
2022/08/05 05:22:15;;;;;;;;;;;;;;;28.19;45.11;99747.41;2091858;28;19920;-51